Time;durP1;ratioP1;P1;durP2;ratioP2;P2;SDS_P1;SDS_P2;PMS_P1;PMS_P2;Temp;Humidity;BMP_temperature;BMP_pressure;BME280_temperature;BME280_humidity;BME280_pressure;Samples;Min_cycle;Max_cycle;Signal;HPM_P1;HPM_P2
2024/04/19 00:00:37;;;;;;;2.60;1.30;;;;;;;7.73;94.84;99597.62;108802;1254;94951;-76
2024/04/19 00:03:47;;;;;;;1.20;1.10;;;;;;;7.71;94.71;99596.87;108856;1251;117921;-76
2024/04/19 00:06:29;;;;;;;;;;;;;;;7.70;94.77;99599.09;108846;1252;95938;-76
2024/04/19 00:09:20;;;;;;;1.30;1.20;;;;;;;7.70;94.29;99602.74;108766;1251;106355;-76
2024/04/19 00:12:11;;;;;;;1.60;1.50;;;;;;;7.70;94.50;99605.53;108733;1254;96482;-77
2024/04/19 00:15:02;;;;;;;1.70;1.40;;;;;;;7.72;94.58;99612.23;108744;1254;95083;-75
2024/04/19 00:17:54;;;;;;;1.40;1.30;;;;;;;7.74;94.53;99616.11;108739;1254;109841;-75
2024/04/19 00:20:42;;;;;;;3.30;1.60;;;;;;;7.77;94.36;99615.68;108827;1252;94939;-76
2024/04/19 00:23:33;;;;;;;1.50;1.40;;;;;;;7.79;94.56;99620.09;108749;1254;106404;-76
2024/04/19 00:26:24;;;;;;;1.60;1.40;;;;;;;7.84;94.74;99621.49;108806;1255;95545;-76
2024/04/19 00:29:05;;;;;;;1.90;1.50;;;;;;;7.88;94.59;99625.98;108771;1251;95496;-76
2024/04/19 00:31:56;;;;;;;2.10;1.10;;;;;;;7.89;94.23;99629.48;108714;1254;109984;-76
2024/04/19 00:34:47;;;;;;;1.50;1.40;;;;;;;7.92;94.74;99631.66;108812;1251;100478;-76
2024/04/19 00:37:38;;;;;;;1.50;1.40;;;;;;;7.95;94.15;99640.98;108805;1251;106364;-76
2024/04/19 00:40:28;;;;;;;1.60;1.50;;;;;;;7.88;94.17;99641.30;108824;1251;95284;-76
2024/04/19 00:43:13;;;;;;;1.50;1.40;;;;;;;7.88;93.85;99645.29;108802;1251;94987;-76
2024/04/19 00:45:56;;;;;;;;;;;;;;;7.86;93.81;99648.56;108795;1254;109758;-76
2024/04/19 00:48:40;;;;;;;1.70;1.60;;;;;;;7.84;93.81;99650.39;108804;1254;94933;-75
2024/04/19 00:51:32;;;;;;;2.30;1.70;;;;;;;7.83;93.84;99654.38;108786;1252;105432;-74
2024/04/19 00:54:17;;;;;;;2.60;1.80;;;;;;;7.81;93.44;99654.83;108751;1251;95811;-75
2024/04/19 00:57:09;;;;;;;2.80;2.00;;;;;;;7.76;93.42;99658.33;108850;1251;95530;-77
2024/04/19 01:00:00;;;;;;;2.50;1.80;;;;;;;7.77;93.96;99659.40;108880;1253;110018;-77
2024/04/19 01:02:52;;;;;;;3.50;2.30;;;;;;;7.82;93.90;99660.78;108804;1251;95537;-76
2024/04/19 01:05:28;;;;;;;2.60;2.10;;;;;;;7.83;93.87;99658.71;108787;1252;112609;-76
2024/04/19 01:08:19;;;;;;;2.50;2.20;;;;;;;7.86;93.82;99659.52;108781;1253;95904;-77
2024/04/19 01:10:59;;;;;;;4.30;2.40;;;;;;;7.89;94.11;99661.02;108789;1254;94944;-76
2024/04/19 01:13:42;;;;;;;2.80;2.40;;;;;;;7.90;93.78;99663.83;108758;1251;110039;-76
2024/04/19 01:16:26;;;;;;;4.30;2.60;;;;;;;7.92;93.86;99667.39;108863;1251;95362;-75
2024/04/19 01:19:16;;;;;;;3.20;2.60;;;;;;;7.88;93.62;99664.84;108866;1251;106349;-76
2024/04/19 01:21:53;;;;;;;3.60;2.80;;;;;;;7.90;93.63;99669.59;108807;1251;95047;-76
2024/04/19 01:24:40;;;;;;;4.50;3.00;;;;;;;7.95;93.79;99674.27;108785;1251;95029;-76
2024/04/19 01:27:16;;;;;;;4.10;3.00;;;;;;;7.99;93.89;99675.27;108744;1254;110105;-76
2024/04/19 01:29:50;;;;;;;5.30;3.10;;;;;;;8.01;93.65;99676.89;108760;1253;96190;-76
2024/04/19 01:32:41;;;;;;;4.30;3.10;;;;;;;8.02;93.54;99681.10;108786;1254;106350;-76
2024/04/19 01:35:24;;;;;;;;;;;;;;;8.02;93.49;99684.04;108753;1251;94968;-76
2024/04/19 01:38:06;;;;;;;5.90;3.50;;;;;;;8.01;93.40;99685.41;108914;1251;94925;-76
2024/04/19 01:40:57;;;;;;;4.80;3.40;;;;;;;8.03;93.42;99689.52;108845;1251;110353;-76
2024/04/19 01:43:30;;;;;;;4.80;3.30;;;;;;;8.03;93.30;99696.64;108863;1251;94982;-76
2024/04/19 01:46:21;;;;;;;7.50;4.00;;;;;;;7.98;92.58;99701.18;108753;1252;111793;-77
2024/04/19 01:49:12;;;;;;;5.20;3.60;;;;;;;7.89;92.54;99706.27;108733;1254;95302;-77
2024/04/19 01:52:05;;;;;;;6.60;4.00;;;;;;;7.81;92.18;99705.31;108784;1252;94934;-76
2024/04/19 01:54:49;;;;;;;7.20;4.10;;;;;;;7.73;92.09;99703.84;108803;1250;109939;-74
2024/04/19 01:57:40;;;;;;;7.40;4.20;;;;;;;7.65;92.08;99705.45;108811;1251;95694;-74
2024/04/19 02:00:20;;;;;;;7.20;4.30;;;;;;;7.54;91.90;99707.89;108837;1251;106225;-75
2024/04/19 02:03:11;;;;;;;7.00;4.50;;;;;;;7.47;91.83;99707.63;108824;1251;95255;-75
2024/04/19 02:06:09;;;;;;;7.40;4.40;;;;;;;7.39;91.49;99708.91;108756;1254;96146;-78
2024/04/19 02:08:59;;;;;;;9.10;5.00;;;;;;;7.31;91.46;99714.90;108795;1252;110042;-75
2024/04/19 02:11:40;;;;;;;8.50;4.80;;;;;;;7.26;91.70;99717.31;108841;1251;94929;-75
2024/04/19 02:14:30;;;;;;;8.40;4.80;;;;;;;7.21;91.53;99717.84;108789;1253;106273;-75
2024/04/19 02:17:21;;;;;;;10.90;5.40;;;;;;;7.16;91.42;99717.66;108830;1251;95546;-74
2024/04/19 02:20:12;;;;;;;12.70;5.10;;;;;;;7.12;91.46;99719.77;108842;1251;95816;-75
2024/04/19 02:23:03;;;;;;;8.70;4.80;;;;;;;7.09;91.31;99718.95;108782;1251;109996;-76
2024/04/19 02:25:53;;;;;;;11.00;5.50;;;;;;;7.03;91.31;99710.40;108791;1251;95394;-74
2024/04/19 02:31:52;;;;;;;12.10;6.10;;;;;;;6.94;91.01;99720.33;108423;1252;95977;-74
2024/04/19 02:34:42;;;;;;;9.80;5.10;;;;;;;6.91;91.05;99725.07;108829;1252;95230;-74
2024/04/19 02:37:33;;;;;;;8.80;5.10;;;;;;;6.89;91.17;99733.85;108771;1253;109961;-76
2024/04/19 02:40:24;;;;;;;9.20;5.10;;;;;;;6.87;91.19;99736.57;108757;1253;94944;-75
2024/04/19 02:43:09;;;;;;;11.90;5.70;;;;;;;6.84;90.87;99738.73;108810;1252;106488;-74
2024/04/19 02:46:04;;;;;;;12.00;5.20;;;;;;;6.78;90.79;99736.42;108709;1250;95032;-75
2024/04/19 02:48:53;;;;;;;10.40;4.90;;;;;;;6.74;90.83;99735.72;108880;1251;95507;-75
2024/04/19 02:51:37;;;;;;;9.70;5.10;;;;;;;6.69;90.69;99734.15;108849;1251;110190;-74
2024/04/19 02:54:20;;;;;;;;;;;;;;;6.65;90.59;99737.80;108878;1250;94897;-74
2024/04/19 02:57:10;;;;;;;10.70;5.40;;;;;;;6.59;90.54;99741.92;108798;1253;105415;-76
2024/04/19 03:00:01;;;;;;;9.30;5.00;;;;;;;6.57;90.37;99752.43;108778;1251;94902;-76
2024/04/19 03:02:52;;;;;;;11.90;5.70;;;;;;;6.53;90.68;99760.94;108790;1253;95454;-75
2024/04/19 03:05:44;;;;;;;12.30;5.40;;;;;;;6.52;90.55;99767.90;108769;1252;110047;-74
2024/04/19 03:08:29;;;;;;;10.00;4.70;;;;;;;6.53;90.44;99770.50;108812;1251;100098;-74
2024/04/19 03:11:12;;;;;;;9.60;4.90;;;;;;;6.51;90.21;99775.98;108806;1251;106392;-76
2024/04/19 03:14:02;;;;;;;9.30;5.20;;;;;;;6.46;90.05;99782.92;108873;1250;94907;-74
2024/04/19 03:16:54;;;;;;;9.80;5.10;;;;;;;6.42;90.09;99786.95;108832;1251;95000;-77
2024/04/19 03:20:00;;;;;;;8.90;5.20;;;;;;;6.42;90.45;99796.50;108563;1252;110061;-74
2024/04/19 03:22:51;;;;;;;9.30;5.10;;;;;;;6.41;90.21;99799.95;108813;1253;94962;-76
2024/04/19 03:25:42;;;;;;;9.40;4.50;;;;;;;6.41;90.11;99804.08;108916;1252;106391;-75
2024/04/19 03:28:23;;;;;;;9.50;5.00;;;;;;;6.40;90.10;99805.45;108840;1253;95071;-76
2024/04/19 03:31:14;;;;;;;12.60;4.90;;;;;;;6.39;90.18;99808.02;108809;1251;94954;-76
2024/04/19 03:34:05;;;;;;;10.50;4.90;;;;;;;6.38;89.86;99808.48;108818;1252;110113;-77
2024/04/19 03:36:51;;;;;;;11.50;5.30;;;;;;;6.38;90.08;99812.50;108802;1251;94928;-76
2024/04/19 03:39:42;;;;;;;14.30;5.20;;;;;;;6.43;89.98;99821.54;108884;1250;111635;-76
2024/04/19 03:42:33;;;;;;;11.80;5.30;;;;;;;6.44;89.98;99828.21;108853;1250;94891;-76
2024/04/19 03:45:44;;;;;;;7.00;4.50;;;;;;;6.46;90.05;99835.25;108876;1250;94973;-76
2024/04/19 03:48:28;;;;;;;9.70;5.10;;;;;;;6.56;90.27;99841.21;108706;1254;111308;-75
2024/04/19 03:51:11;;;;;;;10.20;4.90;;;;;;;6.63;90.06;99839.93;108760;1252;95335;-76
2024/04/19 03:54:03;;;;;;;10.60;5.30;;;;;;;6.68;90.01;99839.44;108765;1252;106475;-76
2024/04/19 03:56:44;;;;;;;11.80;5.00;;;;;;;6.73;90.02;99839.80;108764;1252;95624;-76
2024/04/19 03:59:25;;;;;;;10.70;4.90;;;;;;;6.76;89.43;99836.81;108716;1253;95462;-76
2024/04/19 04:02:25;;;;;;;11.50;5.30;;;;;;;6.74;89.03;99839.50;108599;1253;110118;-75
2024/04/19 04:05:19;;;;;;;10.00;4.60;;;;;;;6.72;88.85;99836.83;108668;1253;95924;-76
2024/04/19 04:08:10;;;;;;;10.50;5.20;;;;;;;6.74;88.59;99839.33;108642;1251;106383;-76
2024/04/19 04:10:47;;;;;;;13.10;5.00;;;;;;;6.75;88.61;99838.16;108880;1250;95031;-75
2024/04/19 04:13:38;;;;;;;12.40;4.80;;;;;;;6.78;88.58;99839.67;108688;1251;95357;-75
2024/04/19 04:16:29;;;;;;;11.10;5.00;;;;;;;6.82;88.07;99841.95;108757;1251;109968;-76
2024/04/19 04:19:03;;;;;;;10.70;4.90;;;;;;;6.86;88.06;99853.34;108673;1251;95061;-75
2024/04/19 04:21:47;;;;;;;10.90;4.90;;;;;;;6.87;88.25;99857.21;108803;1252;106397;-76
2024/04/19 04:24:32;;;;;;;9.60;5.10;;;;;;;6.89;87.87;99856.96;108632;1254;94970;-77
2024/04/19 04:27:12;;;;;;;10.80;5.10;;;;;;;6.92;87.49;99857.61;108702;1252;94991;-75
2024/04/19 04:29:53;;;;;;;10.90;4.90;;;;;;;6.94;87.64;99863.94;108726;1250;110232;-75
2024/04/19 04:32:36;;;;;;;11.90;4.60;;;;;;;6.97;87.63;99860.75;108777;1250;95018;-76
2024/04/19 04:35:14;;;;;;;12.10;5.30;;;;;;;7.02;87.57;99869.47;108733;1250;106327;-74
2024/04/19 04:38:06;;;;;;;11.40;4.90;;;;;;;7.03;87.19;99871.96;108773;1250;96155;-74
2024/04/19 04:40:57;;;;;;;8.50;4.90;;;;;;;7.06;87.31;99879.38;108632;1252;95412;-74
2024/04/19 04:43:48;;;;;;;10.20;4.60;;;;;;;7.08;87.14;99879.81;108657;1252;109833;-75
2024/04/19 04:46:39;;;;;;;12.90;5.00;;;;;;;7.10;86.51;99875.88;108770;1252;95027;-75
2024/04/19 04:49:24;;;;;;;9.30;4.70;;;;;;;7.13;86.60;99877.73;108973;1250;106398;-76
2024/04/19 04:52:15;;;;;;;10.00;5.30;;;;;;;7.17;86.75;99882.60;108912;1250;94900;-75
2024/04/19 04:54:51;;;;;;;11.30;5.30;;;;;;;7.20;85.86;99886.55;108747;1250;95027;-75
2024/04/19 04:57:22;;;;;;;12.60;5.30;;;;;;;7.25;85.95;99892.63;108736;1250;108760;-75
2024/04/19 05:00:14;;;;;;;12.00;5.00;;;;;;;7.29;86.18;99892.28;108526;1251;95332;-75
2024/04/19 05:02:53;;;;;;;10.50;4.50;;;;;;;7.34;86.08;99897.86;108608;1253;106275;-75
2024/04/19 05:05:45;;;;;;;12.90;5.20;;;;;;;7.36;85.87;99898.65;108604;1251;95745;-76
2024/04/19 05:08:19;;;;;;;14.20;5.00;;;;;;;7.38;85.49;99898.73;108500;1252;95980;-75
2024/04/19 05:11:02;;;;;;;11.10;5.40;;;;;;;7.41;85.08;99899.88;108461;1250;109989;-75
2024/04/19 05:13:53;;;;;;;11.20;5.10;;;;;;;7.45;84.96;99901.41;108565;1251;96097;-74
2024/04/19 05:16:44;;;;;;;9.90;5.20;;;;;;;7.51;84.77;99902.87;108645;1250;106386;-75
2024/04/19 05:19:35;;;;;;;8.40;4.50;;;;;;;7.57;84.98;99909.34;108557;1251;96238;-77
2024/04/19 05:22:29;;;;;;;11.40;5.00;;;;;;;7.61;84.67;99920.28;108633;1253;94903;-74
2024/04/19 05:25:29;;;;;;;9.60;4.80;;;;;;;7.64;84.22;99923.36;108851;1252;109994;-73
2024/04/19 05:28:44;;;;;;;10.20;4.50;;;;;;;7.69;84.18;99931.92;107981;1260;95468;-76
2024/04/19 05:31:35;;;;;;;8.70;4.50;;;;;;;7.78;84.72;99937.48;108462;1250;106229;-73
2024/04/19 05:34:27;;;;;;;9.20;4.50;;;;;;;7.87;83.35;99951.61;108541;1251;96201;-75
2024/04/19 05:37:19;;;;;;;10.80;4.50;;;;;;;7.94;83.42;99952.16;108469;1253;95041;-73
2024/04/19 05:40:01;;;;;;;9.60;4.90;;;;;;;7.99;83.66;99952.53;108251;1253;109893;-73
2024/04/19 05:42:53;;;;;;;9.90;4.20;;;;;;;8.06;83.84;99954.91;108542;1253;95587;-73
2024/04/19 05:45:45;;;;;;;9.20;4.40;;;;;;;8.13;82.88;99958.99;108393;1253;106354;-73
2024/04/19 05:48:36;;;;;;;10.40;4.10;;;;;;;8.18;83.03;99965.45;108439;1253;95062;-75
2024/04/19 05:51:27;;;;;;;11.40;4.30;;;;;;;8.25;82.24;99970.75;108588;1250;94999;-74
2024/04/19 05:54:12;;;;;;;9.00;4.30;;;;;;;8.33;82.36;99976.45;108486;1250;110431;-76
2024/04/19 05:56:47;;;;;;;8.50;3.90;;;;;;;8.43;81.98;99984.11;108391;1250;95709;-77
2024/04/19 05:59:39;;;;;;;10.00;4.20;;;;;;;8.51;81.96;99975.70;108346;1250;107185;-77
2024/04/19 06:02:15;;;;;;;8.20;4.20;;;;;;;8.59;82.09;99976.00;108263;1253;95763;-77
2024/04/19 06:04:58;;;;;;;6.90;3.90;;;;;;;8.70;81.01;99977.79;108391;1255;95380;-77
2024/04/19 06:07:49;;;;;;;9.90;4.20;;;;;;;8.78;81.11;99976.31;108254;1252;109885;-76
2024/04/19 06:10:41;;;;;;;9.00;4.10;;;;;;;8.82;80.25;99978.89;108561;1253;95404;-76
2024/04/19 06:13:33;;;;;;;8.50;4.10;;;;;;;8.86;78.91;99982.00;108817;1252;106399;-74
2024/04/19 06:16:13;;;;;;;11.30;4.20;;;;;;;8.88;77.14;99974.55;108899;1253;95003;-73
2024/04/19 06:18:43;;;;;;;9.00;3.80;;;;;;;8.88;77.25;99975.06;108883;1253;94947;-77
2024/04/19 06:21:14;;;;;;;8.50;3.90;;;;;;;8.95;78.28;99967.30;108348;1253;111995;-75
2024/04/19 06:24:06;;;;;;;9.10;4.20;;;;;;;9.06;78.40;99965.22;108764;1252;96050;-74
2024/04/19 06:26:57;;;;;;;10.40;3.70;;;;;;;9.22;77.52;99970.97;108925;1252;106429;-74
2024/04/19 06:29:49;;;;;;;7.80;4.00;;;;;;;9.32;77.74;99971.98;108805;1252;94855;-73
2024/04/19 06:32:35;;;;;;;8.60;3.80;;;;;;;9.41;76.96;99975.23;108880;1250;94970;-73
2024/04/19 06:35:27;;;;;;;7.90;3.90;;;;;;;9.51;76.73;99978.36;109035;1250;109986;-73
2024/04/19 06:38:13;;;;;;;7.20;3.50;;;;;;;9.57;74.85;99981.13;109059;1250;94859;-72
2024/04/19 06:40:57;;;;;;;9.60;3.40;;;;;;;9.59;74.64;99977.71;109024;1250;106365;-71
2024/04/19 06:43:46;;;;;;;7.10;3.60;;;;;;;9.64;74.57;99983.98;108900;1252;94887;-71
2024/04/19 06:46:37;;;;;;;8.10;3.60;;;;;;;9.69;73.91;99986.94;108898;1253;94893;-72
2024/04/19 06:49:48;;;;;;;8.40;3.00;;;;;;;9.87;74.05;99988.55;108726;1252;110031;-71
2024/04/19 06:52:39;;;;;;;7.50;3.20;;;;;;;9.96;72.96;99990.20;108744;1251;94987;-72
2024/04/19 06:55:30;;;;;;;8.00;3.30;;;;;;;10.07;73.68;99991.05;108833;1251;106337;-72
2024/04/19 06:58:22;;;;;;;5.20;3.10;;;;;;;10.18;74.26;99993.13;108835;1253;95670;-72
2024/04/19 07:01:07;;;;;;;5.00;3.00;;;;;;;10.37;73.60;99997.55;108955;1251;94873;-71
2024/04/19 07:03:58;;;;;;;9.10;3.00;;;;;;;10.51;73.80;100000.73;108327;1251;110036;-72
2024/04/19 07:06:49;;;;;;;6.90;2.80;;;;;;;10.57;72.04;100011.75;108920;1251;94912;-73
2024/04/19 07:09:39;;;;;;;9.20;3.30;;;;;;;10.61;71.45;100013.60;108867;1252;106355;-72
2024/04/19 07:12:24;;;;;;;7.10;3.40;;;;;;;10.68;70.85;100009.42;108886;1252;94852;-72
2024/04/19 07:20:09;;;;;;;5.30;2.60;;;;;;;11.09;72.53;100018.71;102346;1301;635042;-71
2024/04/19 07:23:00;;;;;;;6.10;2.60;;;;;;;11.22;70.45;100021.68;105288;1268;95139;-72
2024/04/19 07:25:52;;;;;;;6.80;3.10;;;;;;;11.42;70.35;100020.95;105738;1266;94343;-74
2024/04/19 07:28:43;;;;;;;8.30;2.90;;;;;;;11.55;69.40;100019.35;105426;1266;109171;-72
2024/04/19 07:31:34;;;;;;;5.70;2.80;;;;;;;11.65;70.36;100029.55;105575;1269;98211;-74
2024/04/19 07:34:27;;;;;;;5.50;3.00;;;;;;;11.67;69.07;100031.73;102276;1257;5451324;-72
2024/04/19 07:37:20;;;;;;;7.20;2.80;;;;;;;11.60;69.18;100032.77;106134;1260;95236;-71
2024/04/19 07:40:12;;;;;;;3.40;2.80;;;;;;;11.75;68.26;100039.80;106157;1256;94015;-73
2024/04/19 07:43:04;;;;;;;9.60;3.40;;;;;;;11.92;67.28;100036.67;106195;1256;106161;-72
2024/04/19 07:46:00;;;;;;;6.60;3.10;;;;;;;11.88;67.71;100035.17;106201;1257;94242;-74
2024/04/19 07:48:51;;;;;;;4.40;2.60;;;;;;;12.01;68.43;100033.57;106164;1257;106302;-72
2024/04/19 07:51:42;;;;;;;6.90;3.00;;;;;;;12.18;68.33;100034.11;106121;1257;94722;-74
2024/04/19 07:54:33;;;;;;;5.10;2.60;;;;;;;12.38;68.72;100030.50;106146;1257;94287;-73
2024/04/19 07:57:25;;;;;;;4.00;2.50;;;;;;;12.54;68.36;100028.55;106069;1257;108482;-73
2024/04/19 08:00:21;;;;;;;3.40;2.40;;;;;;;12.74;65.76;100027.17;106039;1256;95354;-73
2024/04/19 08:03:06;;;;;;;4.30;2.40;;;;;;;12.82;67.76;100025.75;106139;1257;107839;-74
2024/04/19 08:05:57;;;;;;;5.80;2.90;;;;;;;12.85;66.77;100023.38;106556;1256;96409;-73
2024/04/19 08:08:51;;;;;;;6.30;3.40;;;;;;;12.95;66.84;100026.19;106337;1258;94109;-73
2024/04/19 08:11:42;;;;;;;5.90;2.60;;;;;;;12.95;64.44;100031.10;106826;1257;109213;-77
2024/04/19 08:14:33;;;;;;;4.60;2.70;;;;;;;12.91;64.95;100027.51;106822;1255;97514;-73
2024/04/19 08:17:26;;;;;;;4.70;2.80;;;;;;;12.87;63.41;100028.14;106646;1258;106553;-73
2024/04/19 08:20:18;;;;;;;5.40;2.70;;;;;;;12.93;61.99;100033.70;106388;1253;96576;-73
2024/04/19 08:23:09;;;;;;;4.90;3.00;;;;;;;12.98;62.76;100033.61;106282;1254;96615;-75
2024/04/19 08:26:00;;;;;;;5.40;2.70;;;;;;;12.94;61.62;100034.42;106335;1253;108719;-72
2024/04/19 08:28:51;;;;;;;4.60;2.50;;;;;;;12.93;60.96;100034.75;106361;1254;96568;-72
2024/04/19 08:31:45;;;;;;;5.80;2.90;;;;;;;12.91;60.12;100039.10;106199;1256;106195;-72
2024/04/19 08:34:36;;;;;;;7.00;2.90;;;;;;;12.83;59.92;100046.48;106195;1257;96547;-73
2024/04/19 08:37:17;;;;;;;3.60;2.50;;;;;;;12.79;57.84;100045.52;106232;1257;94420;-73
2024/04/19 08:44:52;;;;;;;4.20;2.00;;;;;;;13.01;60.54;100047.72;106117;1257;101413;-72
2024/04/19 08:47:45;;;;;;;5.00;2.60;;;;;;;13.04;57.73;100051.27;107099;1254;106073;-73
2024/04/19 08:50:37;;;;;;;5.90;2.40;;;;;;;13.14;57.01;100055.33;106364;1253;96641;-73
2024/04/19 08:53:28;;;;;;;4.20;2.40;;;;;;;13.19;56.52;100050.30;107447;1254;96482;-73
2024/04/19 08:56:20;;;;;;;4.10;2.40;;;;;;;13.18;56.58;100056.44;106256;1254;108514;-72
2024/04/19 08:59:10;;;;;;;3.40;2.50;;;;;;;13.29;56.50;100058.75;107267;1254;95552;-73
2024/04/19 09:02:11;;;;;;;2.70;2.10;;;;;;;13.34;56.52;100062.70;106145;1257;108192;-72
2024/04/19 09:05:03;;;;;;;5.90;2.50;;;;;;;13.44;54.95;100072.23;106149;1256;96645;-72
2024/04/19 09:07:57;;;;;;;3.30;2.10;;;;;;;13.33;53.60;100072.00;106262;1254;96478;-72
2024/04/19 09:10:55;;;;;;;4.50;2.80;;;;;;;13.26;53.96;100069.94;106301;1254;108602;-72
2024/04/19 09:13:48;;;;;;;6.00;2.60;;;;;;;13.23;52.53;100068.84;106761;1257;96459;-74
2024/04/19 09:16:39;;;;;;;3.40;2.00;;;;;;;13.22;52.40;100064.59;106741;1254;105324;-75
2024/04/19 09:19:32;;;;;;;4.20;2.40;;;;;;;13.24;52.19;100065.31;106429;1254;96524;-73
2024/04/19 09:22:06;;;;;;;3.00;2.30;;;;;;;13.28;52.85;100056.98;106271;1254;96504;-72
2024/04/19 09:24:57;;;;;;;3.00;2.50;;;;;;;13.31;50.91;100060.55;106251;1254;108639;-73
2024/04/19 09:27:49;;;;;;;4.00;2.40;;;;;;;13.37;52.18;100056.81;106380;1254;96540;-72
2024/04/19 09:30:44;;;;;;;2.60;2.10;;;;;;;13.40;51.45;100061.95;106280;1254;107188;-73
2024/04/19 09:33:27;;;;;;;3.00;2.20;;;;;;;13.44;51.56;100060.62;106383;1253;94189;-72
2024/04/19 09:36:23;;;;;;;4.50;2.30;;;;;;;13.54;50.35;100064.48;106404;1254;96607;-73
2024/04/19 09:39:16;;;;;;;5.30;2.50;;;;;;;13.60;50.31;100060.02;106346;1254;114027;-72
2024/04/19 09:42:09;;;;;;;3.30;2.40;;;;;;;13.60;50.13;100060.89;106343;1254;94354;-72
2024/04/19 09:45:02;;;;;;;4.60;2.30;;;;;;;13.54;52.21;100057.63;106209;1254;106195;-74
2024/04/19 09:47:55;;;;;;;3.30;2.20;;;;;;;13.60;51.33;100062.47;106333;1253;94179;-72
2024/04/19 09:50:49;;;;;;;3.20;2.20;;;;;;;13.61;50.11;100063.89;106437;1253;96575;-73
2024/04/19 09:53:44;;;;;;;5.10;2.40;;;;;;;13.67;49.73;100075.41;106363;1254;108662;-72
2024/04/19 09:56:43;;;;;;;2.90;2.20;;;;;;;13.49;47.73;100073.52;106438;1255;96674;-72
2024/04/19 09:59:35;;;;;;;3.80;2.40;;;;;;;13.45;48.80;100069.59;106292;1253;112361;-72
2024/04/19 10:02:30;;;;;;;4.10;2.50;;;;;;;13.45;49.36;100073.11;106293;1254;94202;-73
2024/04/19 10:05:21;;;;;;;3.60;2.10;;;;;;;13.25;49.78;100070.79;106328;1254;96518;-73
2024/04/19 10:08:14;;;;;;;3.30;2.20;;;;;;;13.31;49.40;100065.10;106385;1254;108516;-72
2024/04/19 10:11:05;;;;;;;3.90;2.30;;;;;;;13.39;48.61;100065.09;106391;1256;96546;-72
2024/04/19 10:18:53;;;;;;;4.00;2.20;;;;;;;13.45;48.92;100061.35;105979;1254;96506;-72
2024/04/19 10:21:47;;;;;;;2.30;2.00;;;;;;;13.63;49.07;100055.66;106224;1254;94330;-73
2024/04/19 10:24:42;;;;;;;2.70;2.10;;;;;;;13.86;48.79;100053.20;106189;1254;109297;-73
2024/04/19 10:27:34;;;;;;;3.80;2.30;;;;;;;14.06;48.62;100053.14;106187;1254;96538;-71
2024/04/19 10:30:34;;;;;;;4.10;2.10;;;;;;;14.10;47.52;100049.85;106281;1254;112482;-73
2024/04/19 10:33:28;;;;;;;4.70;2.10;;;;;;;14.24;48.56;100062.34;106269;1254;96511;-73
2024/04/19 10:36:13;;;;;;;5.20;2.40;;;;;;;14.36;47.83;100060.24;106353;1253;96504;-75
2024/04/19 10:39:04;;;;;;;4.00;2.20;;;;;;;14.50;47.98;100060.24;106303;1254;108551;-73
2024/04/19 10:41:56;;;;;;;2.30;1.90;;;;;;;14.65;47.71;100059.23;106335;1254;96373;-72
2024/04/19 10:45:59;;;;;;;3.90;1.90;;;;;;;14.78;47.90;100057.45;105872;1257;106286;-73
2024/04/19 10:48:51;;;;;;;2.90;1.80;;;;;;;14.88;48.45;100058.42;106399;1254;96627;-72
2024/04/19 10:51:47;;;;;;;2.90;1.60;;;;;;;14.77;46.31;100061.84;106276;1254;96601;-72
2024/04/19 10:54:40;;;;;;;2.20;2.00;;;;;;;14.63;45.89;100064.82;106416;1253;108577;-72
2024/04/19 10:57:33;;;;;;;3.60;1.90;;;;;;;14.55;46.46;100059.61;106393;1253;94476;-72
2024/04/19 11:05:42;;;;;;;6.00;2.50;;;;;;;14.63;45.21;100063.60;102302;1301;635436;-71
2024/04/19 11:08:34;;;;;;;7.10;2.30;;;;;;;14.41;45.26;100064.17;105434;1266;94046;-74
2024/04/19 11:11:42;;;;;;;2.10;1.80;;;;;;;14.30;46.20;100052.59;105691;1263;95241;-73
2024/04/19 11:14:33;;;;;;;4.20;2.20;;;;;;;14.47;45.75;100065.48;105641;1262;107346;-72
2024/04/19 11:17:26;;;;;;;4.80;2.30;;;;;;;14.41;45.82;100065.41;108130;1263;95509;-74
2024/04/19 11:24:47;;;;;;;4.50;2.10;;;;;;;14.46;44.36;100066.17;108209;1260;108092;-72
2024/04/19 11:27:32;;;;;;;4.40;2.40;;;;;;;14.26;43.90;100066.98;108382;1260;94771;-73
2024/04/19 11:30:15;;;;;;;3.00;2.20;;;;;;;14.17;44.65;100065.96;108645;1256;107646;-72
2024/04/19 11:33:10;;;;;;;4.70;2.10;;;;;;;14.22;44.53;100072.17;108671;1255;92247;-74
2024/04/19 11:35:53;;;;;;;4.80;2.00;;;;;;;14.27;44.13;100073.85;108607;1256;93537;-73
2024/04/19 11:43:03;;;;;;;4.40;1.80;;;;;;;14.16;45.09;100082.16;108429;1256;95747;-73
2024/04/19 11:45:59;;;;;;;4.60;1.90;;;;;;;14.22;45.26;100079.05;108602;1256;105201;-74
2024/04/19 11:48:52;;;;;;;3.40;2.40;;;;;;;14.44;44.33;100081.65;108632;1255;94222;-74
2024/04/19 11:51:45;;;;;;;4.90;2.30;;;;;;;14.51;44.20;100081.37;108663;1255;93609;-73
2024/04/19 11:54:31;;;;;;;2.30;1.90;;;;;;;14.61;44.85;100081.70;108652;1255;108929;-73
2024/04/19 11:57:16;;;;;;;2.60;1.70;;;;;;;14.68;44.46;100081.46;108558;1256;94212;-73
2024/04/19 12:00:20;;;;;;;2.50;1.70;;;;;;;14.71;44.65;100077.10;108553;1256;106373;-72
2024/04/19 12:03:09;;;;;;;3.40;1.90;;;;;;;14.84;45.01;100073.89;108568;1256;93537;-74
2024/04/19 12:06:02;;;;;;;4.10;1.80;;;;;;;14.99;44.34;100066.30;108522;1255;93542;-72
2024/04/19 12:08:54;;;;;;;3.80;2.00;;;;;;;15.19;43.93;100061.05;108644;1256;108645;-73
2024/04/19 12:11:47;;;;;;;3.00;1.70;;;;;;;15.30;43.78;100071.55;108666;1255;94191;-74
2024/04/19 12:14:38;;;;;;;3.00;1.60;;;;;;;15.34;44.04;100068.59;108614;1256;106383;-75
2024/04/19 12:17:29;;;;;;;3.70;1.90;;;;;;;15.36;43.76;100069.48;108571;1256;93545;-74
2024/04/19 12:20:23;;;;;;;2.50;1.90;;;;;;;15.37;43.82;100067.20;108569;1256;93644;-73
2024/04/19 12:23:14;;;;;;;2.10;1.60;;;;;;;15.42;42.59;100067.07;108563;1257;108693;-72
2024/04/19 12:25:57;;;;;;;1.90;1.70;;;;;;;15.13;42.44;100067.52;108573;1256;94232;-74
2024/04/19 12:28:41;;;;;;;2.90;1.60;;;;;;;14.85;42.05;100069.48;108610;1256;106712;-74
2024/04/19 12:31:22;;;;;;;3.10;2.00;;;;;;;14.69;43.07;100067.55;108610;1256;94081;-74
2024/04/19 12:34:07;;;;;;;2.60;1.80;;;;;;;14.62;43.17;100071.35;108650;1256;93514;-74
2024/04/19 12:36:51;;;;;;;3.40;1.90;;;;;;;14.57;43.34;100070.55;108596;1257;108606;-73
2024/04/19 12:39:42;;;;;;;2.80;1.80;;;;;;;14.48;43.36;100073.94;108826;1253;95614;-74
2024/04/19 12:42:33;;;;;;;3.90;1.80;;;;;;;14.35;43.37;100071.13;108844;1253;106206;-74
2024/04/19 12:45:24;;;;;;;2.80;1.80;;;;;;;14.27;43.70;100071.02;108560;1253;93575;-75
2024/04/19 12:48:15;;;;;;;2.40;1.90;;;;;;;14.19;42.79;100070.58;108773;1252;93801;-74
2024/04/19 12:50:48;;;;;;;2.50;2.00;;;;;;;14.05;42.81;100075.48;108800;1253;108754;-72
2024/04/19 12:53:45;;;;;;;3.00;2.10;;;;;;;13.85;42.61;100075.70;108890;1253;93913;-74
2024/04/19 12:56:36;;;;;;;2.70;1.90;;;;;;;13.80;42.76;100075.61;108785;1253;106238;-74
2024/04/19 12:59:27;;;;;;;3.30;2.20;;;;;;;13.79;42.88;100073.66;108879;1253;93553;-73
2024/04/19 13:02:09;;;;;;;2.50;1.80;;;;;;;13.82;42.56;100073.19;108932;1253;93478;-74
2024/04/19 13:05:07;;;;;;;2.60;1.70;;;;;;;13.85;42.02;100070.58;108856;1253;108535;-74
2024/04/19 13:07:58;;;;;;;4.40;2.10;;;;;;;13.87;42.74;100073.61;108778;1253;94220;-77
2024/04/19 13:10:38;;;;;;;4.40;2.30;;;;;;;13.85;42.42;100075.52;108755;1253;105604;-74
2024/04/19 13:13:49;;;;;;;6.70;2.40;;;;;;;13.78;42.16;100075.93;108885;1253;93608;-75
2024/04/19 13:16:35;;;;;;;2.90;2.00;;;;;;;13.71;42.38;100069.48;108902;1253;93473;-74
2024/04/19 13:19:20;;;;;;;3.60;2.10;;;;;;;13.63;42.63;100067.44;108703;1256;116166;-74
2024/04/19 13:22:11;;;;;;;4.90;2.60;;;;;;;13.65;42.84;100065.20;108596;1258;93952;-75
2024/04/19 13:25:09;;;;;;;2.20;1.80;;;;;;;13.59;42.55;100062.45;108707;1254;107090;-74
2024/04/19 13:27:46;;;;;;;2.30;2.00;;;;;;;13.58;42.25;100058.21;108711;1253;93637;-74
2024/04/19 13:30:37;;;;;;;4.00;2.10;;;;;;;13.54;42.32;100051.84;108879;1253;93523;-74
2024/04/19 13:33:33;;;;;;;3.40;1.90;;;;;;;13.55;42.16;100051.50;108677;1253;108906;-74
2024/04/19 13:39:27;;;;;;;4.60;2.10;;;;;;;13.56;42.32;100047.82;108575;1257;106256;-75